Weather History for KVAY - April, 2013

Change the Weather History Date:

Friday, April 12, 2013

  Actual Average (KWRI) Record (KWRI)
Temperature  
Mean Temperature 46 °F -  
Max Temperature 48 °F 60 °F 74 °F (2008)
Min Temperature 44 °F 40 °F 30 °F (1998)
Degree Days  
Heating Degree Days 19    
Moisture  
Dew Point 44 °F    
Average Humidity 93    
Maximum Humidity 100    
Minimum Humidity 87    
Precipitation  
Precipitation 1.13 in - - ()
Sea Level Pressure  
Sea Level Pressure 29.79 in    
Wind  
Wind Speed 9 mph (NE)    
Max Wind Speed 15 mph    
Max Gust Speed 25 mph    
Visibility 4 miles    
Events Rain    
Averages and records for this station are not official NWS values.
T = Trace of Precipitation, MM = Missing Value Source: NWS Daily Summary

Daily Weather History Graph

Daily Weather History Graph

Search for Another Location

Airport or City:

Trip Planner

Search our weather history database for the weather conditions in past years. The results will help you decide how hot, cold, wet, or windy it might be!

Date:

Astronomy

Apr. 12, 2013 Rise Set
Actual Time 6:25 AM EDT 7:34 PM EDT
Civil Twilight 5:57 AM EDT 8:02 PM EDT
Nautical Twilight 5:24 AM EDT 8:36 PM EDT
Astronomical Twilight 4:50 AM EDT 9:11 PM EDT
Moon 7:34 AM EDT (4/12) 10:03 PM EDT (4/12)
Length of Visible Light 14h 04m
Length of Day
13h 09m
Waxing Crescent, 5% of the Moon is Illuminated
Apr 12
Waxing Crescent
Apr 18
First Quarter
Apr 25
Full
May 2
Last Quarter
May 9
New

Hourly Weather History & Observations

Time (EDT) Temp. Windchill Dew Point Humidity Pressure Visibility Wind Dir Wind Speed Gust Speed Precip Events Conditions
12:13 AM 48.2 °F - 44.6 °F 87% 29.95 in 10.0 mi ENE 9.2 mph 18.4 mph N/A   Overcast
12:45 AM 48.2 °F - 44.6 °F 87% 29.95 in 9.0 mi East 11.5 mph - N/A   Overcast
12:54 AM 46.9 °F - 44.1 °F 90% 29.95 in 8.0 mi ENE 11.5 mph 17.3 mph N/A   Overcast
1:54 AM 46.0 °F 41.4 °F 44.1 °F 93% 29.94 in 4.0 mi ENE 9.2 mph - N/A   Overcast
2:12 AM 46.4 °F 41.9 °F 44.6 °F 93% 29.93 in 2.5 mi ENE 9.2 mph - N/A   Overcast
2:24 AM 46.4 °F 42.9 °F 44.6 °F 93% 29.93 in 3.0 mi ENE 6.9 mph - N/A   Overcast
2:35 AM 46.4 °F 41.1 °F 44.6 °F 93% 29.93 in 2.5 mi East 11.5 mph 17.3 mph N/A   Overcast
2:54 AM 46.0 °F 41.0 °F 44.1 °F 93% 29.92 in 2.5 mi ENE 10.4 mph - N/A   Overcast
3:47 AM 46.4 °F 41.5 °F 44.6 °F 93% 29.91 in 3.0 mi ENE 10.4 mph 19.6 mph N/A   Overcast
3:54 AM 46.0 °F 40.2 °F 44.1 °F 93% 29.91 in 4.0 mi East 12.7 mph 20.7 mph N/A   Overcast
4:54 AM 45.0 °F 38.9 °F 43.0 °F 93% 29.89 in 6.0 mi ENE 12.7 mph 21.9 mph N/A   Overcast
5:54 AM 45.0 °F 38.2 °F 43.0 °F 93% 29.85 in 8.0 mi ENE 15.0 mph 23.0 mph 0.00 in Rain Light Rain
6:54 AM 45.0 °F 38.9 °F 43.0 °F 93% 29.85 in 6.0 mi ENE 12.7 mph 20.7 mph 0.00 in   Overcast
7:54 AM 45.0 °F 40.6 °F 43.0 °F 93% 29.83 in 3.0 mi ENE 8.1 mph 18.4 mph 0.02 in Rain Light Rain
8:11 AM 44.6 °F 38.8 °F 42.8 °F 93% 29.83 in 1.8 mi ENE 11.5 mph 17.3 mph 0.04 in Rain Heavy Rain
8:25 AM 44.6 °F 39.2 °F 42.8 °F 93% 29.83 in 3.0 mi ENE 10.4 mph 21.9 mph 0.06 in Rain Light Rain
8:36 AM 44.6 °F 38.4 °F 42.8 °F 93% 29.82 in 5.0 mi East 12.7 mph 18.4 mph 0.07 in Rain Light Rain
8:54 AM 45.0 °F 39.7 °F 43.0 °F 93% 29.82 in 5.0 mi ENE 10.4 mph 20.7 mph 0.09 in Rain Rain
9:04 AM 44.6 °F 40.2 °F 42.8 °F 93% 29.82 in 1.8 mi ENE 8.1 mph 18.4 mph 0.06 in Rain Heavy Rain
9:12 AM 44.6 °F 40.2 °F 42.8 °F 93% 29.81 in 3.0 mi East 8.1 mph 18.4 mph 0.07 in Rain Light Rain
9:29 AM 44.6 °F 41.4 °F 42.8 °F 93% 29.81 in 2.5 mi ENE 5.8 mph 17.3 mph 0.11 in Rain Heavy Rain
9:37 AM 44.6 °F 40.2 °F 42.8 °F 93% 29.81 in 1.2 mi NE 8.1 mph - 0.20 in Rain Heavy Rain
9:49 AM 44.6 °F 43.1 °F 42.8 °F 93% 29.81 in 3.0 mi Variable 3.5 mph 18.4 mph 0.23 in Rain Rain
9:50 AM 45.0 °F 42.6 °F 43.0 °F 93% 29.81 in 3.0 mi Variable 4.6 mph 18.4 mph 0.23 in Rain Rain
10:26 AM 44.6 °F 41.4 °F 42.8 °F 93% 29.80 in 2.0 mi Variable 5.8 mph 25.3 mph 0.06 in Rain Rain
10:41 AM 46.4 °F 42.4 °F 44.6 °F 93% 29.79 in 1.8 mi East 8.1 mph - 0.15 in Rain Heavy Rain
10:49 AM 46.4 °F 42.4 °F 44.6 °F 93% 29.80 in 2.5 mi East 8.1 mph - 0.16 in Rain Rain
10:54 AM 46.0 °F 41.4 °F 44.1 °F 93% 29.80 in 2.5 mi ENE 9.2 mph - 0.18 in Rain Rain
11:02 AM 46.4 °F 42.9 °F 44.6 °F 93% 29.79 in 3.0 mi ENE 6.9 mph - 0.01 in Rain Rain
11:18 AM 46.4 °F 41.9 °F 44.6 °F 93% 29.78 in 4.0 mi ENE 9.2 mph - 0.05 in Rain Rain
11:54 AM 46.0 °F 41.4 °F 45.0 °F 96% 29.76 in 7.0 mi ENE 9.2 mph - 0.07 in Rain Light Rain
12:32 PM 46.4 °F 41.9 °F 44.6 °F 93% 29.74 in 1.8 mi NE 9.2 mph - 0.11 in Rain Heavy Rain
12:40 PM 46.4 °F 43.5 °F 44.6 °F 93% 29.74 in 3.0 mi NE 5.8 mph - 0.11 in Rain Light Rain
12:52 PM 46.4 °F 44.3 °F 44.6 °F 93% 29.74 in 2.0 mi ENE 4.6 mph - 0.13 in Rain Rain
12:54 PM 46.0 °F 43.1 °F 45.0 °F 96% 29.74 in 2.0 mi ENE 5.8 mph - 0.14 in Rain Rain
1:16 PM 46.4 °F 41.9 °F 44.6 °F 93% 29.74 in 1.2 mi NE 9.2 mph - 0.08 in Rain Rain
1:33 PM 46.4 °F 41.9 °F 44.6 °F 93% 29.73 in 2.5 mi NE 9.2 mph - 0.12 in Rain Light Rain
1:54 PM 46.0 °F 43.1 °F 44.1 °F 93% 29.73 in 4.0 mi NE 5.8 mph - 0.14 in Rain Light Rain
2:54 PM 48.0 °F - 45.0 °F 89% 29.70 in 10.0 mi NNE 8.1 mph - 0.01 in   Overcast
3:54 PM 48.0 °F - 45.0 °F 89% 29.69 in 10.0 mi NNE 11.5 mph - N/A   Overcast
4:54 PM 48.0 °F - 45.0 °F 89% 29.69 in 10.0 mi NE 8.1 mph - 0.00 in   Overcast
5:54 PM 46.9 °F - 45.0 °F 93% 29.69 in 4.0 mi NE 8.1 mph 16.1 mph 0.00 in   Overcast
6:13 PM 46.4 °F 41.5 °F 44.6 °F 93% 29.69 in 4.0 mi NNE 10.4 mph - N/A   Overcast
6:54 PM 46.0 °F 41.9 °F 44.1 °F 93% 29.70 in 3.0 mi NNE 8.1 mph - N/A   Overcast
7:27 PM 46.4 °F 42.9 °F 44.6 °F 93% 29.68 in 2.0 mi NE 6.9 mph - N/A   Overcast
7:37 PM 44.6 °F 38.8 °F 44.6 °F 100% 29.68 in 1.8 mi NNE 11.5 mph - N/A   Overcast
7:46 PM 44.6 °F 39.7 °F 44.6 °F 100% 29.68 in 2.5 mi NNE 9.2 mph - N/A   Overcast
7:54 PM 45.0 °F 40.1 °F 43.0 °F 93% 29.68 in 2.5 mi NE 9.2 mph - N/A   Overcast
8:27 PM 44.6 °F 39.7 °F 42.8 °F 93% 29.68 in 1.5 mi NNE 9.2 mph - N/A   Overcast
8:54 PM 44.1 °F 40.1 °F 43.0 °F 96% 29.70 in 1.8 mi NE 6.9 mph - N/A   Overcast
9:54 PM 44.1 °F 39.0 °F 43.0 °F 96% 29.73 in 1.5 mi NW 9.2 mph - N/A   Overcast
10:22 PM 44.6 °F 38.4 °F 42.8 °F 93% 29.71 in 2.0 mi NNE 12.7 mph - N/A   Overcast
10:41 PM 44.6 °F 39.2 °F 42.8 °F 93% 29.72 in 2.5 mi North 10.4 mph - 0.01 in Rain Rain
10:54 PM 44.1 °F 39.5 °F 42.1 °F 93% 29.72 in 2.5 mi North 8.1 mph - 0.05 in Rain Light Rain
11:04 PM 44.6 °F 43.1 °F 42.8 °F 93% 29.74 in 1.5 mi Variable 3.5 mph - 0.12 in Rain Heavy Rain
11:18 PM 44.6 °F 42.2 °F 42.8 °F 93% 29.73 in 2.5 mi ENE 4.6 mph - 0.18 in Rain Rain
11:27 PM 44.6 °F 42.2 °F 42.8 °F 93% 29.73 in 5.0 mi NE 4.6 mph - 0.18 in Rain Light Rain
11:54 PM 44.1 °F 40.8 °F 42.1 °F 93% 29.73 in 7.0 mi North 5.8 mph - 0.20 in Rain Light Rain